createdAt,value
2023-02-06T00:01:47.999Z,3.80
2023-02-06T00:04:14.866Z,3.80
2023-02-06T00:06:42.693Z,3.80
2023-02-06T00:09:09.889Z,3.80
2023-02-06T00:11:36.547Z,3.90
2023-02-06T00:14:03.295Z,3.80
2023-02-06T00:16:32.761Z,3.90
2023-02-06T00:19:00.440Z,4.00
2023-02-06T00:21:28.473Z,3.90
2023-02-06T00:23:57.927Z,3.90
2023-02-06T00:26:25.519Z,3.90
2023-02-06T00:28:52.530Z,3.90
2023-02-06T00:31:19.246Z,4.00
2023-02-06T00:33:45.939Z,4.00
2023-02-06T00:36:12.818Z,4.00
2023-02-06T00:38:39.785Z,3.90
2023-02-06T00:41:09.175Z,4.00
2023-02-06T00:43:36.417Z,3.90
2023-02-06T00:46:03.338Z,4.00
2023-02-06T00:48:29.932Z,3.90
2023-02-06T00:50:56.682Z,3.90
2023-02-06T00:53:23.232Z,4.00
2023-02-06T00:55:49.789Z,4.00
2023-02-06T00:58:16.350Z,4.00
2023-02-06T01:00:43.281Z,4.00
2023-02-06T01:03:10.013Z,4.00
2023-02-06T01:05:36.965Z,4.10
2023-02-06T01:08:04.647Z,4.00
2023-02-06T01:10:31.785Z,4.00
2023-02-06T01:12:58.651Z,4.00
2023-02-06T01:15:25.434Z,4.10
2023-02-06T01:17:52.314Z,4.00
2023-02-06T01:20:18.974Z,4.00
2023-02-06T01:22:45.563Z,4.00
2023-02-06T01:25:12.217Z,4.00
2023-02-06T01:27:39.059Z,4.00
2023-02-06T01:30:07.036Z,4.00
2023-02-06T01:32:37.789Z,3.90
2023-02-06T01:35:06.652Z,4.10
2023-02-06T01:37:33.752Z,4.10
2023-02-06T01:40:00.302Z,4.10
2023-02-06T01:42:26.835Z,4.00
2023-02-06T01:45:19.195Z,4.00
2023-02-06T01:47:45.743Z,4.10
2023-02-06T01:50:12.294Z,4.10
2023-02-06T01:52:38.964Z,4.10
2023-02-06T01:55:06.226Z,4.10
2023-02-06T01:57:34.343Z,4.10
2023-02-06T02:00:06.447Z,4.00
2023-02-06T02:02:34.576Z,4.00
2023-02-06T02:05:03.095Z,4.00
2023-02-06T02:07:37.111Z,4.10
2023-02-06T02:10:04.701Z,4.10
2023-02-06T02:12:31.304Z,4.10
2023-02-06T02:14:58.742Z,4.10
2023-02-06T02:17:43.718Z,4.10
2023-02-06T02:20:46.631Z,4.00
2023-02-06T02:23:42.548Z,4.00
2023-02-06T02:26:12.051Z,4.00
2023-02-06T02:29:11.989Z,4.00
2023-02-06T02:32:03.985Z,4.00
2023-02-06T02:34:36.188Z,4.00
2023-02-06T02:37:20.791Z,4.00
2023-02-06T02:40:23.691Z,4.00
2023-02-06T02:43:19.668Z,4.00
2023-02-06T02:45:46.206Z,4.10
2023-02-06T02:48:22.490Z,4.10
2023-02-06T02:50:50.346Z,4.00
2023-02-06T02:53:17.052Z,4.00
2023-02-06T02:55:43.616Z,4.00
2023-02-06T02:58:15.254Z,3.90
2023-02-06T03:01:07.300Z,3.90
2023-02-06T03:03:36.583Z,3.90
2023-02-06T03:06:40.580Z,3.90
2023-02-06T03:09:25.237Z,3.80
2023-02-06T03:12:20.637Z,3.80
2023-02-06T03:15:24.760Z,3.90
2023-02-06T03:18:31.318Z,3.80
2023-02-06T03:20:59.795Z,3.80
2023-02-06T03:23:32.427Z,3.80
2023-02-06T03:26:02.575Z,3.80
2023-02-06T03:28:34.472Z,3.80
2023-02-06T03:31:05.514Z,3.70
2023-02-06T03:33:37.851Z,3.80
2023-02-06T03:36:05.204Z,3.80
2023-02-06T03:38:32.161Z,3.80
2023-02-06T03:41:00.370Z,3.80
2023-02-06T03:43:29.381Z,3.80
2023-02-06T03:46:00.818Z,3.80
2023-02-06T03:48:30.062Z,3.70
2023-02-06T03:51:01.231Z,3.70
2023-02-06T03:53:29.879Z,3.70
2023-02-06T03:56:00.839Z,3.70
2023-02-06T03:58:27.464Z,3.70
2023-02-06T04:00:54.211Z,3.70
2023-02-06T04:03:21.421Z,3.80
2023-02-06T04:05:48.136Z,3.80
2023-02-06T04:08:14.668Z,3.80
2023-02-06T04:10:41.227Z,3.80
2023-02-06T04:13:07.745Z,3.80
2023-02-06T04:15:34.818Z,3.90
2023-02-06T04:18:02.047Z,3.90
2023-02-06T04:20:29.566Z,3.90
2023-02-06T04:22:57.109Z,3.80
2023-02-06T04:25:24.026Z,3.80
2023-02-06T04:27:51.249Z,3.80
2023-02-06T04:30:18.172Z,3.90
2023-02-06T04:32:44.827Z,3.80
2023-02-06T04:35:11.511Z,3.80
2023-02-06T04:37:38.292Z,3.80
2023-02-06T04:40:05.350Z,3.90
2023-02-06T04:42:32.024Z,3.90
2023-02-06T04:44:58.558Z,3.90
2023-02-06T04:47:25.287Z,3.90
2023-02-06T04:49:51.870Z,3.90
2023-02-06T04:52:18.529Z,3.90
2023-02-06T04:54:45.035Z,3.90
2023-02-06T04:57:11.533Z,3.70
2023-02-06T04:59:38.032Z,3.80
2023-02-06T05:02:04.624Z,3.70
2023-02-06T05:04:31.307Z,3.70
2023-02-06T05:06:57.885Z,3.70
2023-02-06T05:09:24.469Z,3.70
2023-02-06T05:11:54.184Z,3.70
2023-02-06T05:14:20.833Z,3.70
2023-02-06T05:16:47.431Z,3.80
2023-02-06T05:19:14.020Z,3.70
2023-02-06T05:21:40.635Z,3.70
2023-02-06T05:24:07.264Z,3.70
2023-02-06T05:26:33.890Z,3.70
2023-02-06T05:29:00.668Z,3.70
2023-02-06T05:31:27.371Z,3.70
2023-02-06T05:33:54.980Z,3.80
2023-02-06T05:36:22.467Z,3.70
2023-02-06T05:38:50.120Z,3.70
2023-02-06T05:41:17.227Z,3.60
2023-02-06T05:43:43.895Z,3.60
2023-02-06T05:46:13.072Z,3.60
2023-02-06T05:48:40.551Z,3.60
2023-02-06T05:51:07.453Z,3.60
2023-02-06T05:53:34.048Z,3.70
2023-02-06T05:56:00.629Z,3.70
2023-02-06T05:58:27.346Z,3.70
2023-02-06T06:00:53.932Z,3.70
2023-02-06T06:03:20.493Z,3.70
2023-02-06T06:05:47.244Z,3.70
2023-02-06T06:08:14.723Z,3.70
2023-02-06T06:10:41.409Z,3.70
2023-02-06T06:13:08.358Z,3.70
2023-02-06T06:15:36.188Z,3.70
2023-02-06T06:18:03.883Z,3.70
2023-02-06T06:20:30.597Z,3.70
2023-02-06T06:22:57.227Z,3.70
2023-02-06T06:25:23.905Z,3.60
2023-02-06T06:27:50.711Z,3.70
2023-02-06T06:30:17.444Z,3.70
2023-02-06T06:32:44.021Z,3.70
2023-02-06T06:35:10.688Z,3.70
2023-02-06T06:37:37.361Z,3.70
2023-02-06T06:40:04.221Z,3.70
2023-02-06T06:42:30.839Z,3.70
2023-02-06T06:44:57.538Z,3.70
2023-02-06T06:47:24.187Z,3.60
2023-02-06T06:49:50.816Z,3.70
2023-02-06T06:52:25.099Z,3.70
2023-02-06T06:54:53.073Z,3.80
2023-02-06T06:57:21.101Z,3.80
2023-02-06T06:59:48.246Z,3.80
2023-02-06T07:02:15.520Z,3.80
2023-02-06T07:04:42.509Z,3.80
2023-02-06T07:07:09.476Z,3.80
2023-02-06T07:09:36.156Z,3.80
2023-02-06T07:12:03.128Z,3.80
2023-02-06T07:14:29.734Z,3.80
2023-02-06T07:16:56.410Z,3.80
2023-02-06T07:19:23.214Z,3.90
2023-02-06T07:21:49.986Z,3.90
2023-02-06T07:24:16.516Z,3.80
2023-02-06T07:26:43.380Z,3.80
2023-02-06T07:29:10.056Z,3.80
2023-02-06T07:31:36.724Z,3.80
2023-02-06T07:34:03.872Z,3.80
2023-02-06T07:36:30.557Z,3.80
2023-02-06T07:38:57.172Z,3.60
2023-02-06T07:41:23.759Z,3.60
2023-02-06T07:43:50.380Z,3.70
2023-02-06T07:46:17.125Z,3.70
2023-02-06T07:48:44.723Z,3.70
2023-02-06T07:51:11.341Z,3.80
2023-02-06T07:53:38.399Z,3.70
2023-02-06T07:56:18.684Z,3.80
2023-02-06T07:58:49.161Z,3.90
2023-02-06T08:01:15.924Z,3.80
2023-02-06T08:03:42.576Z,3.80
2023-02-06T08:06:11.194Z,3.90
2023-02-06T08:08:38.417Z,3.90
2023-02-06T08:11:07.103Z,3.90
2023-02-06T08:13:34.926Z,4.00
2023-02-06T08:16:06.320Z,3.90
2023-02-06T08:18:32.975Z,4.00
2023-02-06T08:21:04.712Z,4.00
2023-02-06T08:23:31.819Z,4.00
2023-02-06T08:26:07.843Z,4.00
2023-02-06T08:28:35.355Z,4.00
2023-02-06T08:31:10.229Z,4.00
2023-02-06T08:33:37.344Z,4.10
2023-02-06T08:36:05.434Z,4.10
2023-02-06T08:38:32.086Z,4.10
2023-02-06T08:40:58.672Z,4.00
2023-02-06T08:43:25.437Z,4.00
2023-02-06T08:45:53.318Z,4.00
2023-02-06T08:48:19.977Z,4.10
2023-02-06T08:50:49.589Z,4.10
2023-02-06T08:53:16.131Z,4.10
2023-02-06T08:55:42.861Z,4.20
2023-02-06T08:58:09.447Z,4.40
2023-02-06T09:00:36.207Z,4.50
2023-02-06T09:03:02.811Z,4.60
2023-02-06T09:05:29.447Z,4.60
2023-02-06T09:07:56.172Z,4.70
2023-02-06T09:10:27.835Z,4.70
2023-02-06T09:12:54.966Z,4.80
2023-02-06T09:15:21.788Z,4.80
2023-02-06T09:17:48.378Z,5.00
2023-02-06T09:20:15.185Z,5.00
2023-02-06T09:22:41.939Z,4.80
2023-02-06T09:25:08.720Z,4.80
2023-02-06T09:27:36.082Z,4.80
2023-02-06T09:30:03.080Z,4.80
2023-02-06T09:32:29.680Z,4.90
2023-02-06T09:34:57.304Z,5.00
2023-02-06T09:37:23.871Z,5.10
2023-02-06T09:39:50.451Z,5.10
2023-02-06T09:42:24.169Z,5.10
2023-02-06T09:45:04.223Z,5.20
2023-02-06T09:47:34.364Z,5.30
2023-02-06T09:50:07.586Z,5.20
2023-02-06T09:52:46.179Z,5.30
2023-02-06T09:55:42.667Z,5.20
2023-02-06T09:58:42.180Z,5.20
2023-02-06T10:01:21.665Z,5.30
2023-02-06T10:04:24.461Z,5.20
2023-02-06T10:07:12.857Z,5.20
2023-02-06T10:09:52.409Z,5.30
2023-02-06T10:12:29.628Z,5.30
2023-02-06T10:15:12.889Z,5.50
2023-02-06T10:17:51.238Z,5.40
2023-02-06T10:20:47.158Z,5.40
2023-02-06T10:23:13.627Z,5.10
2023-02-06T10:25:51.483Z,5.10
2023-02-06T10:28:26.821Z,5.00
2023-02-06T10:31:15.287Z,5.10
2023-02-06T10:34:19.768Z,5.40
2023-02-06T10:37:14.746Z,5.40
2023-02-06T10:39:41.279Z,5.50
2023-02-06T10:42:31.097Z,5.50
2023-02-06T10:45:19.618Z,5.80
2023-02-06T10:47:54.243Z,5.80
2023-02-06T10:50:44.965Z,5.80
2023-02-06T10:53:24.147Z,5.90
2023-02-06T10:56:04.705Z,5.70
2023-02-06T10:58:40.708Z,5.50
2023-02-06T11:01:24.772Z,5.50
2023-02-06T11:04:00.105Z,5.40
2023-02-06T11:06:28.851Z,5.30
2023-02-06T11:08:56.040Z,5.20
2023-02-06T11:11:29.940Z,5.20
2023-02-06T11:14:27.129Z,5.40
2023-02-06T11:16:54.176Z,5.70
2023-02-06T11:19:41.426Z,5.90
2023-02-06T11:22:07.961Z,6.00
2023-02-06T11:24:35.513Z,6.00
2023-02-06T11:27:18.388Z,6.10
2023-02-06T11:29:51.011Z,6.30
2023-02-06T11:32:59.004Z,6.30
2023-02-06T11:35:39.472Z,6.30
2023-02-06T11:38:27.855Z,6.30
2023-02-06T11:41:04.231Z,6.20
2023-02-06T11:43:33.739Z,6.10
2023-02-06T11:46:19.773Z,6.30
2023-02-06T11:48:56.004Z,6.80
2023-02-06T11:51:24.346Z,7.00
2023-02-06T11:53:58.432Z,8.00
2023-02-06T11:56:25.943Z,8.50
2023-02-06T11:59:17.758Z,8.50
2023-02-06T12:01:47.910Z,7.20
2023-02-06T12:04:25.976Z,6.50
2023-02-06T12:07:28.644Z,6.90
2023-02-06T12:09:55.610Z,7.20
2023-02-06T12:12:36.207Z,7.10
2023-02-06T12:15:45.610Z,7.10
2023-02-06T12:18:34.655Z,7.00
2023-02-06T12:21:07.873Z,7.20
2023-02-06T12:23:47.265Z,7.00
2023-02-06T12:26:23.936Z,7.00
2023-02-06T12:29:06.000Z,6.90
2023-02-06T12:31:44.298Z,7.00
2023-02-06T12:34:18.330Z,7.10
2023-02-06T12:37:00.204Z,6.90
2023-02-06T12:39:32.285Z,7.10
2023-02-06T12:42:22.554Z,7.10
2023-02-06T12:45:03.773Z,7.10
2023-02-06T12:47:50.633Z,7.00
2023-02-06T12:50:32.154Z,7.30
2023-02-06T12:53:13.353Z,7.40
2023-02-06T12:56:20.402Z,7.40
2023-02-06T12:59:30.283Z,7.60
2023-02-06T13:02:01.126Z,7.70
2023-02-06T13:04:32.330Z,7.70
2023-02-06T13:07:07.809Z,7.60
2023-02-06T13:10:00.309Z,7.60
2023-02-06T13:12:30.802Z,7.80
2023-02-06T13:15:20.107Z,7.80
2023-02-06T13:17:46.853Z,8.00
2023-02-06T13:20:18.609Z,8.40
2023-02-06T13:23:21.099Z,8.60
2023-02-06T13:25:48.453Z,8.60
2023-02-06T13:28:25.439Z,8.80
2023-02-06T13:31:08.946Z,8.90
2023-02-06T13:33:58.500Z,8.90
2023-02-06T13:36:40.680Z,8.20
2023-02-06T13:39:22.799Z,8.00
2023-02-06T13:41:49.686Z,7.90
2023-02-06T13:44:36.876Z,8.70
2023-02-06T13:47:28.034Z,8.10
2023-02-06T13:50:36.371Z,8.10
2023-02-06T13:53:21.656Z,8.50
2023-02-06T13:56:13.800Z,8.80
2023-02-06T13:59:00.396Z,8.70
2023-02-06T14:01:31.025Z,8.20
2023-02-06T14:03:59.405Z,8.30
2023-02-06T14:06:40.266Z,8.00
2023-02-06T14:09:30.804Z,7.60
2023-02-06T14:12:27.147Z,7.50
2023-02-06T14:15:02.186Z,7.80
2023-02-06T14:17:47.540Z,8.20
2023-02-06T14:20:32.192Z,8.20
2023-02-06T14:23:07.394Z,8.20
2023-02-06T14:25:33.860Z,8.30
2023-02-06T14:28:09.127Z,8.20
2023-02-06T14:30:51.576Z,8.10
2023-02-06T14:33:41.640Z,7.90
2023-02-06T14:36:34.746Z,7.90
2023-02-06T14:39:08.101Z,7.80
2023-02-06T14:41:39.644Z,7.60
2023-02-06T14:44:19.975Z,7.40
2023-02-06T14:46:46.916Z,7.30
2023-02-06T14:49:22.069Z,7.10
2023-02-06T14:51:50.014Z,7.70
2023-02-06T14:54:38.284Z,7.30
2023-02-06T14:57:13.564Z,7.00
2023-02-06T14:59:49.610Z,6.90
2023-02-06T15:02:40.117Z,6.90
2023-02-06T15:05:06.900Z,7.20
2023-02-06T15:07:36.743Z,7.40
2023-02-06T15:10:06.797Z,7.50
2023-02-06T15:12:35.133Z,7.60
2023-02-06T15:15:22.613Z,7.60
2023-02-06T15:18:00.849Z,7.50
2023-02-06T15:20:33.019Z,7.40
2023-02-06T15:23:17.768Z,7.50
2023-02-06T15:25:47.949Z,7.40
2023-02-06T15:28:22.740Z,7.20
2023-02-06T15:30:54.718Z,7.10
2023-02-06T15:33:30.288Z,7.20
2023-02-06T15:35:58.852Z,7.10
2023-02-06T15:38:28.037Z,7.00
2023-02-06T15:41:13.426Z,6.90
2023-02-06T15:43:41.493Z,6.80
2023-02-06T15:46:08.391Z,6.80
2023-02-06T15:48:38.918Z,6.70
2023-02-06T15:51:08.222Z,6.70
2023-02-06T15:53:39.823Z,6.70
2023-02-06T15:56:29.751Z,6.60
2023-02-06T15:58:59.540Z,6.60
2023-02-06T16:01:29.044Z,6.50
2023-02-06T16:03:59.483Z,6.50
2023-02-06T16:06:26.179Z,6.50
2023-02-06T16:08:56.992Z,6.40
2023-02-06T16:11:50.767Z,6.40
2023-02-06T16:14:23.218Z,6.20
2023-02-06T16:17:02.472Z,6.20
2023-02-06T16:19:45.065Z,6.20
2023-02-06T16:22:30.226Z,6.10
2023-02-06T16:25:30.406Z,6.10
2023-02-06T16:27:58.236Z,6.00
2023-02-06T16:30:32.140Z,6.00
2023-02-06T16:33:08.188Z,6.00
2023-02-06T16:35:34.850Z,6.00
2023-02-06T16:38:01.498Z,5.90
2023-02-06T16:40:28.138Z,5.90
2023-02-06T16:42:55.057Z,5.90
2023-02-06T16:45:25.710Z,6.00
2023-02-06T16:47:53.554Z,5.90
2023-02-06T16:50:21.749Z,5.90
2023-02-06T16:52:55.418Z,5.80
2023-02-06T16:55:25.039Z,5.80
2023-02-06T16:58:01.325Z,5.70
2023-02-06T17:00:31.393Z,5.70
2023-02-06T17:02:58.604Z,5.70
2023-02-06T17:05:27.540Z,5.60
2023-02-06T17:07:54.831Z,5.60
2023-02-06T17:10:24.565Z,5.50
2023-02-06T17:12:51.274Z,5.50
2023-02-06T17:15:19.445Z,5.40
2023-02-06T17:17:46.469Z,5.30
2023-02-06T17:20:33.462Z,5.30
2023-02-06T17:23:00.231Z,5.20
2023-02-06T17:25:26.865Z,5.10
2023-02-06T17:27:53.860Z,5.10
2023-02-06T17:30:22.528Z,5.10
2023-02-06T17:32:49.242Z,5.30
2023-02-06T17:35:16.807Z,5.20
2023-02-06T17:37:43.536Z,5.20
2023-02-06T17:40:18.592Z,5.10
2023-02-06T17:42:45.181Z,5.10
2023-02-06T17:45:11.720Z,5.10
2023-02-06T17:47:38.261Z,5.20
2023-02-06T17:50:05.171Z,5.10
2023-02-06T17:52:31.833Z,5.00
2023-02-06T17:54:58.444Z,5.00
2023-02-06T17:57:25.008Z,5.00
2023-02-06T17:59:54.629Z,5.00
2023-02-06T18:02:21.404Z,4.90
2023-02-06T18:04:52.881Z,4.80
2023-02-06T18:07:20.665Z,4.70
2023-02-06T18:09:47.938Z,4.70
2023-02-06T18:12:15.781Z,4.50
2023-02-06T18:14:43.970Z,4.40
2023-02-06T18:17:11.029Z,4.40
2023-02-06T18:19:42.160Z,4.40
2023-02-06T18:22:11.646Z,4.30
2023-02-06T18:24:38.819Z,4.30
2023-02-06T18:27:06.699Z,4.20
2023-02-06T18:29:48.957Z,4.10
2023-02-06T18:32:17.985Z,4.10
2023-02-06T18:34:44.953Z,4.00
2023-02-06T18:37:11.576Z,4.00
2023-02-06T18:39:39.184Z,4.00
2023-02-06T18:42:24.637Z,4.00
2023-02-06T18:44:51.316Z,4.00
2023-02-06T18:47:18.839Z,3.90
2023-02-06T18:49:45.540Z,3.90
2023-02-06T18:52:12.428Z,3.90
2023-02-06T18:54:39.510Z,3.90
2023-02-06T18:57:06.453Z,3.80
2023-02-06T18:59:33.341Z,3.70
2023-02-06T19:02:00.101Z,3.60
2023-02-06T19:04:26.798Z,3.60
2023-02-06T19:06:53.533Z,3.60
2023-02-06T19:09:20.209Z,3.50
2023-02-06T19:11:48.293Z,3.50
2023-02-06T19:14:17.199Z,3.40
2023-02-06T19:16:47.298Z,3.50
2023-02-06T19:19:14.605Z,3.40
2023-02-06T19:21:41.663Z,3.40
2023-02-06T19:24:11.126Z,3.30
2023-02-06T19:26:37.842Z,3.30
2023-02-06T19:29:05.048Z,3.30
2023-02-06T19:31:32.252Z,3.30
2023-02-06T19:34:02.123Z,3.30
2023-02-06T19:36:30.066Z,3.30
2023-02-06T19:39:00.108Z,3.20
2023-02-06T19:41:28.816Z,3.20
2023-02-06T19:43:56.715Z,3.20
2023-02-06T19:46:26.864Z,3.20
2023-02-06T19:48:55.239Z,3.10
2023-02-06T19:51:27.881Z,3.10
2023-02-06T19:53:55.988Z,3.10
2023-02-06T19:56:37.266Z,3.00
2023-02-06T19:59:20.465Z,3.10
2023-02-06T20:01:52.784Z,3.00
2023-02-06T20:04:21.326Z,3.10
2023-02-06T20:06:49.930Z,3.10
2023-02-06T20:09:18.112Z,3.10
2023-02-06T20:11:44.881Z,3.10
2023-02-06T20:14:12.233Z,3.00
2023-02-06T20:16:41.158Z,3.00
2023-02-06T20:19:10.733Z,2.90
2023-02-06T20:21:39.723Z,2.90
2023-02-06T20:24:12.266Z,2.90
2023-02-06T20:26:41.088Z,2.90
2023-02-06T20:29:09.197Z,2.90
2023-02-06T20:31:36.661Z,2.80
2023-02-06T20:34:03.408Z,2.90
2023-02-06T20:36:30.040Z,2.80
2023-02-06T20:38:59.030Z,2.80
2023-02-06T20:41:31.401Z,2.90
2023-02-06T20:44:01.742Z,3.10
2023-02-06T20:46:29.983Z,3.10
2023-02-06T20:49:02.200Z,3.10
2023-02-06T20:51:29.718Z,2.90
2023-02-06T20:53:56.698Z,2.80
2023-02-06T20:56:24.144Z,2.80
2023-02-06T21:03:19.839Z,2.80
2023-02-06T21:05:58.934Z,2.70
2023-02-06T21:08:26.061Z,2.60
2023-02-06T21:10:52.721Z,2.60
2023-02-06T21:13:19.598Z,2.60
2023-02-06T21:15:53.797Z,2.50
2023-02-06T21:18:22.095Z,2.40
2023-02-06T21:20:50.365Z,2.40
2023-02-06T21:23:17.571Z,2.40
2023-02-06T21:25:51.640Z,2.40
2023-02-06T21:28:18.568Z,2.40
2023-02-06T21:30:45.997Z,2.30
2023-02-06T21:33:12.999Z,2.40
2023-02-06T21:35:40.290Z,2.50
2023-02-06T21:38:07.511Z,2.60
2023-02-06T21:40:34.062Z,2.60
2023-02-06T21:43:00.669Z,2.70
2023-02-06T21:45:27.243Z,2.70
2023-02-06T21:47:53.765Z,2.70
2023-02-06T21:50:20.566Z,2.70
2023-02-06T21:52:47.262Z,2.70
2023-02-06T21:55:14.842Z,2.70
2023-02-06T21:57:41.475Z,2.70
2023-02-06T22:00:09.760Z,2.60
2023-02-06T22:02:37.464Z,2.60
2023-02-06T22:05:07.028Z,2.60
2023-02-06T22:07:37.598Z,2.60
2023-02-06T22:10:05.559Z,2.60
2023-02-06T22:12:32.505Z,2.70
2023-02-06T22:14:59.130Z,2.70
2023-02-06T22:17:27.746Z,2.70
2023-02-06T22:19:54.421Z,2.70
2023-02-06T22:22:21.189Z,2.70
2023-02-06T22:24:51.075Z,2.70
2023-02-06T22:27:18.509Z,2.70
2023-02-06T22:29:45.196Z,2.70
2023-02-06T22:32:11.803Z,2.60
2023-02-06T22:34:38.571Z,2.50
2023-02-06T22:37:05.112Z,2.50
2023-02-06T22:39:31.702Z,2.50
2023-02-06T22:41:58.316Z,2.50
2023-02-06T22:44:24.851Z,2.60
2023-02-06T22:46:52.741Z,2.70
2023-02-06T22:49:20.788Z,2.70
2023-02-06T22:51:47.405Z,2.70
2023-02-06T22:54:14.355Z,2.70
2023-02-06T22:56:42.506Z,2.80
2023-02-06T22:59:18.331Z,2.70
2023-02-06T23:01:54.936Z,2.80
2023-02-06T23:04:29.923Z,2.80
2023-02-06T23:06:57.207Z,2.80
2023-02-06T23:09:30.157Z,2.80
2023-02-06T23:12:00.101Z,2.80
2023-02-06T23:14:29.137Z,2.90
2023-02-06T23:16:56.158Z,2.80
2023-02-06T23:19:22.890Z,2.80
2023-02-06T23:21:51.172Z,2.90
2023-02-06T23:24:18.298Z,2.90
2023-02-06T23:26:47.261Z,2.90
2023-02-06T23:29:17.088Z,2.90
2023-02-06T23:31:45.893Z,2.90
2023-02-06T23:34:12.967Z,2.80
2023-02-06T23:36:39.647Z,2.90
2023-02-06T23:39:06.420Z,2.90
2023-02-06T23:41:33.571Z,2.80
2023-02-06T23:44:04.275Z,2.80
2023-02-06T23:46:34.350Z,2.80
2023-02-06T23:49:01.019Z,2.70
2023-02-06T23:51:28.195Z,2.60
2023-02-06T23:53:54.774Z,2.60
2023-02-06T23:56:24.785Z,2.50
2023-02-06T23:58:52.555Z,2.50
